In Rescue
 
Open Full Screen Window  High Contrast Mode
Wind Gusting 20 knots
15
November 14, 2019 2:37 PM EST
Weather Information
Wind Direction
  240 °
Wind Speed
  15 kt (17 mph)
Wind Gust
  20 kt (23 mph)
Altimeter
29.97 in
Visibility
10 SM
Temperature
-03° C
27° F
Dewpoint
-08° C
18° F
Humidity
69%
1hr Rain Fall
00.00 in.
24hr Rain Fall
00.00 in.
Sky Condition
Scattered @ 2,300 ft
VFR

METAR KSAW 141937Z AUTO 24015G20KT 10SM SCT023 M03/M08 A2997 RMK AO2 T10261081

FAA Disclaimer: The data displayed is for advisory purposes only and is not to be used for flight planning or operations.